Time;durP1;ratioP1;P1;durP2;ratioP2;P2;SDS_P1;SDS_P2;PMS_P1;PMS_P2;Temp;Humidity;BMP_temperature;BMP_pressure;BME280_temperature;BME280_humidity;BME280_pressure;Samples;Min_cycle;Max_cycle;Signal;HPM_P1;HPM_P2
2022/03/09 00:00:47;;;;;;;3.67;3.23;;;10.00;99.90;;;;;;5028751;28;20201;-93
2022/03/09 00:03:20;;;;;;;16.07;4.00;;;10.00;99.90;;;;;;5036914;28;20225;-93
2022/03/09 00:05:51;;;;;;;9.33;3.23;;;10.10;99.90;;;;;;5039023;28;20213;-93
2022/03/09 00:10:59;;;;;;;4.50;3.13;;;10.20;99.90;;;;;;5142841;22;20240;-93
2022/03/09 00:13:35;;;;;;;3.10;2.83;;;10.30;99.90;;;;;;5057816;28;20203;-94
2022/03/09 00:16:07;;;;;;;3.87;2.60;;;10.20;99.90;;;;;;5056168;28;20235;-92
2022/03/09 00:18:39;;;;;;;4.17;2.87;;;10.00;99.90;;;;;;5051786;28;20292;-94
2022/03/09 00:21:11;;;;;;;4.67;3.20;;;10.10;99.90;;;;;;5053234;28;20201;-94
2022/03/09 00:23:42;;;;;;;3.83;2.33;;;10.00;99.90;;;;;;5168499;22;20240;-93
2022/03/09 00:26:13;;;;;;;11.33;3.00;;;10.20;99.90;;;;;;5039591;28;20209;-94
2022/03/09 00:28:45;;;;;;;3.13;2.83;;;10.30;99.90;;;;;;5036378;28;20201;-94
2022/03/09 00:31:17;;;;;;;3.60;2.53;;;10.30;99.90;;;;;;5036627;28;20197;-93
2022/03/09 00:33:48;;;;;;;2.67;2.30;;;10.20;99.90;;;;;;5038996;28;20212;-94
2022/03/09 00:36:19;;;;;;;2.87;2.30;;;10.10;99.90;;;;;;5039863;28;20224;-94
2022/03/09 00:38:50;;;;;;;11.07;3.03;;;10.10;99.90;;;;;;5038476;28;20780;-93
2022/03/09 00:41:22;;;;;;;3.23;2.63;;;10.10;99.90;;;;;;5038412;28;20205;-94
2022/03/09 00:43:55;;;;;;;7.53;2.87;;;10.00;99.90;;;;;;5039751;28;20336;-94
2022/03/09 00:46:26;;;;;;;3.13;2.70;;;10.00;99.90;;;;;;5040852;28;20228;-93
2022/03/09 00:48:57;;;;;;;3.00;2.77;;;9.70;99.90;;;;;;5045762;28;20196;-93
2022/03/09 00:51:30;;;;;;;4.73;3.07;;;9.80;99.90;;;;;;5047011;28;20228;-93
2022/03/09 00:54:01;;;;;;;6.20;2.87;;;9.70;99.90;;;;;;5050406;28;20221;-92
2022/03/09 00:56:34;;;;;;;3.07;2.50;;;9.70;99.90;;;;;;5050455;28;20212;-94
2022/03/09 00:59:08;;;;;;;5.77;2.93;;;9.60;99.90;;;;;;5050340;28;20233;-92
2022/03/09 01:01:41;;;;;;;4.00;2.90;;;9.50;99.90;;;;;;5050523;28;20204;-92
2022/03/09 01:04:13;;;;;;;2.90;2.40;;;9.30;99.90;;;;;;5049802;28;20206;-93
2022/03/09 01:06:44;;;;;;;3.20;1.90;;;9.30;99.90;;;;;;5049193;28;20259;-93
2022/03/09 01:09:16;;;;;;;3.63;2.47;;;9.20;99.90;;;;;;5051357;28;20205;-93
2022/03/09 01:11:47;;;;;;;5.10;2.03;;;9.10;99.90;;;;;;5042573;28;20240;-94
2022/03/09 01:14:20;;;;;;;2.93;2.20;;;9.10;99.90;;;;;;5036535;28;20212;-92
2022/03/09 01:16:51;;;;;;;4.20;2.10;;;9.10;99.90;;;;;;5051364;28;20205;-94
2022/03/09 01:19:24;;;;;;;2.40;1.80;;;9.00;99.90;;;;;;5054451;28;20244;-94
2022/03/09 01:21:56;;;;;;;2.67;2.00;;;9.00;99.90;;;;;;5051055;28;20563;-93
2022/03/09 01:24:28;;;;;;;3.30;2.40;;;9.00;99.90;;;;;;5042065;28;20256;-93
2022/03/09 01:26:59;;;;;;;3.60;2.10;;;8.90;99.90;;;;;;5041761;28;20239;-93
2022/03/09 01:29:32;;;;;;;2.83;2.07;;;8.80;99.90;;;;;;5042654;28;20204;-93
2022/03/09 01:32:03;;;;;;;2.77;2.20;;;8.70;99.90;;;;;;5055912;28;20205;-93
2022/03/09 01:34:34;;;;;;;3.53;2.10;;;8.70;99.90;;;;;;5055075;28;20185;-93
2022/03/09 01:37:06;;;;;;;3.43;2.30;;;8.70;99.90;;;;;;5052587;28;20204;-94
2022/03/09 01:39:38;;;;;;;4.00;2.83;;;8.60;99.90;;;;;;5042009;28;20280;-94
2022/03/09 01:42:10;;;;;;;4.80;2.63;;;8.50;99.90;;;;;;5055092;28;20212;-92
2022/03/09 01:44:44;;;;;;;4.70;2.73;;;8.40;99.90;;;;;;4700770;28;10000549;-93
2022/03/09 01:47:15;;;;;;;4.93;2.70;;;8.30;99.90;;;;;;5020249;28;20260;-93
2022/03/09 01:49:46;;;;;;;3.63;2.73;;;8.20;99.90;;;;;;5020809;28;20217;-93
2022/03/09 01:52:18;;;;;;;4.90;2.23;;;8.10;99.90;;;;;;5016977;28;20292;-94
2022/03/09 01:54:49;;;;;;;3.83;2.80;;;8.00;99.90;;;;;;5019832;28;20214;-92
2022/03/09 01:57:20;;;;;;;3.60;2.63;;;8.00;99.90;;;;;;5016288;28;20267;-93
2022/03/09 01:59:54;;;;;;;2.87;2.30;;;7.90;99.90;;;;;;5015739;28;20264;-92
2022/03/09 02:02:25;;;;;;;6.73;2.60;;;7.80;99.90;;;;;;5015913;28;20268;-93
2022/03/09 02:04:56;;;;;;;5.40;2.67;;;7.70;99.90;;;;;;5018197;28;20574;-94
2022/03/09 02:10:14;;;;;;;3.07;2.63;;;7.60;99.90;;;;;;5051507;28;20213;-93
2022/03/09 02:12:45;;;;;;;4.23;3.23;;;7.50;99.90;;;;;;5049845;28;20201;-93
2022/03/09 02:15:20;;;;;;;4.60;2.50;;;7.40;99.90;;;;;;5051078;28;20212;-92
2022/03/09 02:17:51;;;;;;;4.10;2.93;;;7.30;99.90;;;;;;5049617;28;20209;-93
2022/03/09 02:20:24;;;;;;;6.90;2.57;;;7.30;99.90;;;;;;5056411;28;20228;-92
2022/03/09 02:22:58;;;;;;;4.50;2.90;;;7.20;99.90;;;;;;5056764;28;20229;-92
2022/03/09 02:25:30;;;;;;;5.30;2.83;;;7.10;99.90;;;;;;5056513;28;20207;-93
2022/03/09 02:28:04;;;;;;;3.27;2.70;;;7.00;99.90;;;;;;5055525;28;20216;-92
2022/03/09 02:30:36;;;;;;;7.23;3.20;;;6.90;99.90;;;;;;5055502;28;20200;-93
2022/03/09 02:33:08;;;;;;;4.53;2.97;;;6.70;99.90;;;;;;5080840;22;20233;-94
2022/03/09 02:35:40;;;;;;;9.40;3.07;;;6.60;99.90;;;;;;5261329;22;20230;-93
2022/03/09 02:38:14;;;;;;;5.73;3.27;;;6.50;99.90;;;;;;5030420;28;20197;-93
2022/03/09 02:40:46;;;;;;;4.83;2.60;;;6.40;99.90;;;;;;5032714;28;20266;-92
2022/03/09 02:43:17;;;;;;;4.80;3.07;;;6.30;99.90;;;;;;5035254;28;20213;-92
2022/03/09 02:45:48;;;;;;;4.07;2.23;;;6.30;99.90;;;;;;5035290;28;20217;-93
2022/03/09 02:48:32;;;;;;;4.67;2.57;;;6.20;99.90;;;;;;5035542;28;20193;-92
2022/03/09 02:51:03;;;;;;;3.33;2.70;;;6.10;99.90;;;;;;5053866;28;20177;-89
2022/03/09 02:53:36;;;;;;;5.43;4.07;;;6.10;99.90;;;;;;5051018;28;20205;-89
2022/03/09 02:56:09;;;;;;;5.83;5.17;;;6.00;99.90;;;;;;5033650;28;20209;-93
2022/03/09 02:58:41;;;;;;;4.37;3.83;;;5.90;99.90;;;;;;5034906;28;20208;-93
2022/03/09 03:01:13;;;;;;;4.63;3.50;;;5.80;99.90;;;;;;5033557;28;20253;-94
2022/03/09 03:03:46;;;;;;;5.77;3.17;;;5.70;99.90;;;;;;5034261;28;20267;-93
2022/03/09 03:06:18;;;;;;;4.60;3.17;;;5.70;99.90;;;;;;5209813;22;20272;-94
2022/03/09 03:08:52;;;;;;;4.33;3.67;;;5.60;99.90;;;;;;5037536;28;20201;-91
2022/03/09 03:11:22;;;;;;;4.20;3.20;;;5.50;99.90;;;;;;5036594;28;20193;-92
2022/03/09 03:13:53;;;;;;;5.60;3.17;;;5.40;99.90;;;;;;5038764;28;20212;-94
2022/03/09 03:19:01;;;;;;;4.07;2.70;;;5.40;99.90;;;;;;5296704;22;20237;-92
2022/03/09 03:21:34;;;;;;;3.70;2.83;;;5.30;99.90;;;;;;5039084;28;20241;-92
2022/03/09 03:24:09;;;;;;;5.67;2.67;;;5.20;99.90;;;;;;5033774;28;20556;-92
2022/03/09 03:26:40;;;;;;;4.37;2.63;;;5.10;99.90;;;;;;5031188;28;20225;-93
2022/03/09 03:29:11;;;;;;;3.10;2.33;;;5.00;99.90;;;;;;5215296;22;20311;-92
2022/03/09 03:31:44;;;;;;;4.53;2.53;;;5.00;99.90;;;;;;5033065;28;20209;-93
2022/03/09 03:34:20;;;;;;;7.27;2.80;;;5.00;99.90;;;;;;5032674;28;20209;-91
2022/03/09 03:36:55;;;;;;;5.37;3.40;;;4.90;99.90;;;;;;5031760;28;20236;-93
2022/03/09 03:39:29;;;;;;;6.37;4.47;;;4.90;99.90;;;;;;5032150;28;20214;-93
2022/03/09 03:42:02;;;;;;;9.00;5.70;;;4.80;99.90;;;;;;5031572;28;20297;-92
2022/03/09 03:44:34;;;;;;;5.53;4.50;;;4.80;99.90;;;;;;5032056;28;20205;-92
2022/03/09 03:47:07;;;;;;;4.57;4.10;;;4.80;99.90;;;;;;5030195;28;20209;-92
2022/03/09 03:49:39;;;;;;;9.70;7.80;;;4.80;99.90;;;;;;5030559;28;20254;-93
2022/03/09 03:52:11;;;;;;;10.87;8.63;;;4.70;99.90;;;;;;5031811;28;20206;-93
2022/03/09 03:57:20;;;;;;;5.67;3.77;;;4.70;99.90;;;;;;5310753;23;20252;-92
2022/03/09 03:59:51;;;;;;;4.87;3.30;;;4.60;99.90;;;;;;5032461;28;20285;-93
2022/03/09 04:02:23;;;;;;;7.97;3.70;;;4.50;99.90;;;;;;5032194;28;20237;-93
2022/03/09 04:04:54;;;;;;;4.80;3.23;;;4.50;99.90;;;;;;5396634;22;20221;-92
2022/03/09 04:07:26;;;;;;;5.10;3.40;;;4.40;99.90;;;;;;5032070;28;20250;-93
2022/03/09 04:09:58;;;;;;;7.47;3.40;;;4.40;99.90;;;;;;5032481;28;20205;-92
2022/03/09 04:12:31;;;;;;;5.87;3.60;;;4.30;99.90;;;;;;5034040;28;20221;-92
2022/03/09 04:15:06;;;;;;;5.97;3.90;;;4.30;99.90;;;;;;5037651;28;20228;-93
2022/03/09 04:17:47;;;;;;;7.70;4.43;;;4.30;99.90;;;;;;5037788;28;20190;-92
2022/03/09 04:51:30;;;;;;;8.20;6.50;;;4.10;99.90;;;;;;6239195;23;20238;-93
2022/03/09 04:54:01;;;;;;;12.93;9.10;;;4.10;99.90;;;;;;6246192;23;20172;-92
2022/03/09 04:56:33;;;;;;;12.17;9.43;;;4.10;99.90;;;;;;6244525;23;20187;-92
2022/03/09 04:59:04;;;;;;;7.20;5.27;;;4.00;99.90;;;;;;6243692;23;20208;-93
2022/03/09 05:01:35;;;;;;;9.10;6.03;;;4.10;99.90;;;;;;6242981;23;20156;-92
2022/03/09 05:04:06;;;;;;;8.23;6.17;;;4.00;99.90;;;;;;6243628;23;20156;-93
2022/03/09 05:06:39;;;;;;;8.97;6.63;;;3.90;99.90;;;;;;6243597;23;20180;-92
2022/03/09 05:09:10;;;;;;;8.00;5.90;;;3.80;99.90;;;;;;6228767;22;20219;-92
2022/03/09 05:11:42;;;;;;;8.73;5.00;;;3.80;99.90;;;;;;6244316;23;20175;-93
2022/03/09 05:14:14;;;;;;;9.67;6.10;;;3.70;99.90;;;;;;6245338;23;20167;-93
2022/03/09 05:16:45;;;;;;;10.30;7.37;;;3.60;99.90;;;;;;6224042;23;20172;-94
2022/03/09 05:19:17;;;;;;;14.03;11.20;;;3.60;99.90;;;;;;6242718;23;20196;-92
2022/03/09 05:21:49;;;;;;;12.43;10.87;;;3.50;99.90;;;;;;6241078;23;20176;-93
2022/03/09 05:24:40;;;;;;;12.67;9.30;;;3.40;99.90;;;;;;6242667;23;20168;-93
2022/03/09 05:27:11;;;;;;;12.57;7.57;;;3.40;99.90;;;;;;6241124;23;20196;-93
2022/03/09 05:29:42;;;;;;;8.70;6.67;;;3.40;99.90;;;;;;6241633;23;20218;-93
2022/03/09 05:32:14;;;;;;;10.13;5.90;;;3.20;99.90;;;;;;6233027;23;20192;-94
2022/03/09 05:34:49;;;;;;;7.90;5.67;;;3.20;99.90;;;;;;6209033;23;20220;-93
2022/03/09 05:37:28;;;;;;;6.53;5.87;;;3.20;99.90;;;;;;6229428;23;20217;-93
2022/03/09 05:39:59;;;;;;;6.90;5.53;;;3.20;99.90;;;;;;6226992;23;20251;-92
2022/03/09 05:42:30;;;;;;;8.70;6.60;;;3.20;99.90;;;;;;6221524;23;20211;-94
2022/03/09 05:45:01;;;;;;;9.67;6.43;;;3.20;99.90;;;;;;6221660;23;20164;-93
2022/03/09 05:47:50;;;;;;;9.27;7.30;;;3.20;99.90;;;;;;6198061;23;20184;-93
2022/03/09 05:50:21;;;;;;;5.80;4.90;;;3.20;99.90;;;;;;6220405;23;20168;-92
2022/03/09 05:52:55;;;;;;;6.70;4.57;;;3.10;99.90;;;;;;6194790;23;20222;-94
2022/03/09 05:55:26;;;;;;;5.13;3.90;;;3.00;99.90;;;;;;6194084;23;20196;-93
2022/03/09 05:57:57;;;;;;;6.87;4.67;;;3.00;99.90;;;;;;6193634;23;20183;-92
2022/03/09 06:00:29;;;;;;;6.53;4.03;;;2.90;99.90;;;;;;6229166;23;20204;-92
2022/03/09 06:03:00;;;;;;;6.30;4.37;;;2.90;99.90;;;;;;6233634;23;20271;-93
2022/03/09 06:05:31;;;;;;;7.70;4.97;;;2.90;99.90;;;;;;6225332;23;20270;-93
2022/03/09 06:08:04;;;;;;;7.53;4.13;;;2.90;99.90;;;;;;6228219;23;20173;-93
2022/03/09 06:10:38;;;;;;;6.03;4.00;;;2.90;99.90;;;;;;6218850;23;20207;-93
2022/03/09 06:13:09;;;;;;;7.23;4.10;;;2.90;99.90;;;;;;6193351;23;20224;-93
2022/03/09 06:15:40;;;;;;;8.70;4.57;;;2.80;99.90;;;;;;6227396;23;20220;-91
2022/03/09 06:18:13;;;;;;;7.67;4.77;;;2.80;99.90;;;;;;6233233;23;20200;-93
2022/03/09 06:20:44;;;;;;;8.97;5.10;;;2.80;99.90;;;;;;6221357;23;20192;-91
2022/03/09 06:23:18;;;;;;;7.83;5.00;;;2.90;99.90;;;;;;6219759;23;20177;-94
2022/03/09 06:25:49;;;;;;;7.67;5.10;;;2.80;99.90;;;;;;6220413;23;20195;-92
2022/03/09 06:28:21;;;;;;;8.40;5.83;;;2.80;99.90;;;;;;6225553;23;20252;-92
2022/03/09 06:30:52;;;;;;;7.67;6.13;;;2.80;99.90;;;;;;6221828;23;20538;-92
2022/03/09 06:33:23;;;;;;;9.20;6.67;;;2.70;99.90;;;;;;6200085;23;20164;-94
2022/03/09 06:35:54;;;;;;;14.27;8.07;;;2.70;99.90;;;;;;6222731;23;20168;-94
2022/03/09 06:38:27;;;;;;;14.57;9.77;;;2.80;99.90;;;;;;6195927;23;20638;-92
2022/03/09 06:41:00;;;;;;;17.20;9.87;;;2.80;99.90;;;;;;6220801;23;20200;-93
2022/03/09 06:43:30;;;;;;;12.47;8.33;;;2.80;99.90;;;;;;6240500;23;20180;-93
2022/03/09 06:46:03;;;;;;;13.47;9.37;;;2.80;99.90;;;;;;6243160;23;20180;-94
2022/03/09 06:48:35;;;;;;;12.67;8.00;;;2.70;99.90;;;;;;6242288;23;20179;-91
2022/03/09 06:51:06;;;;;;;9.57;7.17;;;2.70;99.90;;;;;;6242605;23;20213;-94
2022/03/09 06:53:42;;;;;;;10.00;6.83;;;2.70;99.90;;;;;;6242694;23;20183;-94
2022/03/09 06:56:13;;;;;;;9.53;6.53;;;2.70;99.90;;;;;;6242725;23;20168;-93
2022/03/09 06:58:44;;;;;;;9.53;6.70;;;2.70;99.90;;;;;;6241137;23;20164;-93
2022/03/09 07:01:15;;;;;;;11.73;6.30;;;2.60;99.90;;;;;;6242191;23;20192;-93
2022/03/09 07:03:47;;;;;;;8.03;5.80;;;2.60;99.90;;;;;;6242657;23;20157;-94
2022/03/09 07:06:18;;;;;;;10.03;5.83;;;2.70;99.90;;;;;;6242252;23;20156;-93
2022/03/09 07:08:51;;;;;;;8.60;5.80;;;2.60;99.90;;;;;;6241497;23;20228;-93
2022/03/09 07:11:22;;;;;;;7.07;5.70;;;2.50;99.90;;;;;;6240177;23;20180;-93
2022/03/09 07:13:53;;;;;;;7.53;5.07;;;2.50;99.90;;;;;;6240638;23;20164;-94
2022/03/09 07:16:25;;;;;;;7.40;5.53;;;2.60;99.90;;;;;;6241239;23;20172;-93
2022/03/09 07:18:57;;;;;;;7.97;5.30;;;2.50;99.90;;;;;;6239168;23;20180;-93
2022/03/09 07:21:29;;;;;;;9.37;5.60;;;2.50;99.90;;;;;;6240784;23;20180;-94
2022/03/09 07:26:44;;;;;;;8.30;5.50;;;2.50;99.90;;;;;;6202546;23;20219;-92
2022/03/09 07:29:17;;;;;;;8.97;6.03;;;2.50;99.90;;;;;;6234395;23;20622;-93
2022/03/09 07:31:48;;;;;;;7.43;5.30;;;2.40;99.90;;;;;;6237846;23;20185;-94
2022/03/09 07:34:22;;;;;;;12.33;5.00;;;2.40;99.90;;;;;;6237084;23;20239;-94
2022/03/09 07:36:57;;;;;;;26.30;5.10;;;2.30;99.90;;;;;;6213981;23;20172;-96
2022/03/09 07:39:29;;;;;;;8.60;4.53;;;2.30;99.90;;;;;;6229013;23;20168;-94
2022/03/09 07:42:03;;;;;;;24.27;4.43;;;2.30;99.90;;;;;;6229709;23;20203;-94
2022/03/09 07:44:38;;;;;;;57.20;5.60;;;2.30;99.90;;;;;;6224840;23;20206;-96
2022/03/09 07:47:10;;;;;;;44.50;5.47;;;2.40;99.90;;;;;;6198099;23;20176;-92
2022/03/09 07:49:41;;;;;;;125.67;8.07;;;2.50;99.90;;;;;;6200688;23;20175;-93
2022/03/09 07:52:13;;;;;;;133.57;8.13;;;2.60;99.90;;;;;;6226191;23;20252;-92
2022/03/09 07:54:45;;;;;;;170.03;9.13;;;2.60;99.90;;;;;;6205697;23;20169;-92
2022/03/09 07:57:17;;;;;;;109.77;7.47;;;2.70;99.90;;;;;;6229012;23;20168;-91
2022/03/09 07:59:49;;;;;;;103.80;8.17;;;2.70;99.90;;;;;;6227203;23;20238;-93
2022/03/09 08:02:21;;;;;;;100.60;7.83;;;2.90;99.90;;;;;;6233261;23;20192;-92
2022/03/09 08:04:52;;;;;;;118.63;9.30;;;2.90;99.90;;;;;;6235678;23;20175;-93
2022/03/09 08:07:24;;;;;;;251.03;13.33;;;2.90;99.90;;;;;;6235699;23;20176;-93
2022/03/09 08:09:55;;;;;;;257.37;13.83;;;2.90;99.90;;;;;;6234592;23;20172;-92
2022/03/09 08:12:33;;;;;;;162.73;9.80;;;3.00;99.90;;;;;;6236955;23;20175;-92
2022/03/09 08:15:04;;;;;;;211.80;12.73;;;3.00;99.90;;;;;;6227330;23;20179;-93
2022/03/09 08:17:35;;;;;;;257.97;15.20;;;3.00;99.90;;;;;;6224845;23;20230;-93
2022/03/09 08:20:07;;;;;;;168.13;10.30;;;3.10;99.90;;;;;;6226337;23;20176;-92
2022/03/09 08:22:39;;;;;;;189.87;10.57;;;3.10;99.90;;;;;;6236099;23;20181;-93
2022/03/09 08:25:11;;;;;;;87.37;7.37;;;3.20;99.90;;;;;;6224853;23;20173;-93
2022/03/09 08:27:44;;;;;;;174.80;10.63;;;3.20;99.90;;;;;;6225601;23;20207;-92
2022/03/09 08:30:15;;;;;;;110.10;8.33;;;3.20;99.90;;;;;;6223359;23;20195;-92
2022/03/09 08:32:47;;;;;;;95.37;8.37;;;3.20;99.90;;;;;;6226763;23;20183;-94
2022/03/09 08:35:18;;;;;;;166.47;10.00;;;3.20;99.90;;;;;;6224559;23;20584;-93
2022/03/09 08:37:49;;;;;;;196.87;11.23;;;3.30;99.90;;;;;;6198284;23;20176;-94
2022/03/09 08:40:20;;;;;;;275.70;12.20;;;3.30;99.90;;;;;;6223958;23;20235;-92
2022/03/09 08:42:53;;;;;;;121.33;8.30;;;3.40;99.90;;;;;;6226070;23;20175;-93
2022/03/09 08:45:25;;;;;;;188.17;10.63;;;3.30;99.90;;;;;;6228918;23;20228;-92
2022/03/09 08:47:56;;;;;;;188.50;11.03;;;3.30;99.90;;;;;;6225980;23;20268;-94
2022/03/09 08:50:28;;;;;;;289.20;13.20;;;3.40;99.90;;;;;;6225522;23;20223;-93
2022/03/09 08:53:06;;;;;;;298.80;13.63;;;3.40;99.90;;;;;;6223765;23;20165;-93
2022/03/09 08:55:38;;;;;;;249.37;13.57;;;3.40;99.90;;;;;;6223929;23;20223;-93
2022/03/09 08:58:10;;;;;;;464.63;22.67;;;3.40;99.90;;;;;;6222262;23;20217;-94
2022/03/09 09:00:41;;;;;;;211.60;13.40;;;3.50;99.90;;;;;;6222085;23;20192;-93
2022/03/09 09:03:13;;;;;;;246.07;15.60;;;3.50;99.90;;;;;;6224540;23;20180;-93
2022/03/09 09:05:45;;;;;;;194.03;11.57;;;3.50;99.90;;;;;;6230933;23;20168;-91
2022/03/09 09:08:16;;;;;;;313.60;16.33;;;3.40;99.90;;;;;;6242354;23;20179;-92
2022/03/09 09:10:48;;;;;;;401.83;18.17;;;3.40;99.90;;;;;;6243479;23;20157;-93
2022/03/09 09:13:21;;;;;;;345.00;15.33;;;3.40;99.90;;;;;;6237100;23;20172;-92
2022/03/09 09:15:53;;;;;;;234.20;11.97;;;3.40;99.90;;;;;;6226900;23;20168;-92
2022/03/09 09:18:25;;;;;;;406.33;17.33;;;3.40;99.90;;;;;;6221122;23;20310;-93
2022/03/09 09:20:56;;;;;;;278.30;16.63;;;3.40;99.90;;;;;;6197869;23;20192;-94
2022/03/09 09:23:28;;;;;;;321.47;13.63;;;3.50;99.90;;;;;;6223295;23;20211;-93
2022/03/09 09:25:59;;;;;;;292.63;13.07;;;3.40;99.90;;;;;;6225156;23;20195;-94
2022/03/09 09:28:33;;;;;;;334.10;14.97;;;3.40;99.90;;;;;;6221521;23;20173;-93
2022/03/09 09:31:04;;;;;;;267.07;12.03;;;3.30;99.90;;;;;;6223389;23;20511;-95
2022/03/09 09:33:36;;;;;;;270.13;13.13;;;3.20;99.90;;;;;;6237168;23;20196;-93
2022/03/09 09:36:09;;;;;;;257.67;12.17;;;3.20;99.90;;;;;;6231069;23;20180;-93
2022/03/09 09:38:42;;;;;;;149.60;9.27;;;3.10;99.90;;;;;;6233762;23;20207;-93
2022/03/09 09:41:18;;;;;;;172.17;10.27;;;3.10;99.90;;;;;;6225912;23;20497;-92
2022/03/09 09:43:53;;;;;;;173.13;8.40;;;3.20;99.90;;;;;;6227266;23;20311;-92
2022/03/09 09:46:24;;;;;;;176.03;10.77;;;3.20;99.90;;;;;;6196822;23;20172;-93
2022/03/09 09:48:56;;;;;;;107.70;7.33;;;3.20;99.90;;;;;;6221901;23;20192;-93
2022/03/09 09:51:28;;;;;;;87.87;6.73;;;3.20;99.90;;;;;;6221456;23;20978;-93
2022/03/09 09:54:00;;;;;;;124.97;7.63;;;3.20;99.90;;;;;;6221964;23;20176;-94
2022/03/09 09:56:32;;;;;;;109.90;7.30;;;3.20;99.90;;;;;;6238140;23;20169;-93
2022/03/09 09:59:06;;;;;;;74.87;6.27;;;3.10;99.90;;;;;;6237612;23;20176;-93
2022/03/09 10:01:38;;;;;;;62.90;5.27;;;3.10;99.90;;;;;;6211286;23;20197;-93
2022/03/09 10:04:10;;;;;;;86.10;5.63;;;3.10;99.90;;;;;;6238689;23;20157;-92
2022/03/09 10:06:42;;;;;;;135.30;7.13;;;3.10;99.90;;;;;;6238903;23;20161;-92
2022/03/09 10:09:14;;;;;;;167.27;8.20;;;3.10;99.90;;;;;;6228804;23;20176;-93
2022/03/09 10:11:50;;;;;;;119.73;6.63;;;3.10;99.90;;;;;;6222697;23;20252;-93
2022/03/09 10:14:43;;;;;;;134.23;7.10;;;3.10;99.90;;;;;;6222506;23;20169;-93
2022/03/09 10:17:15;;;;;;;115.00;7.83;;;3.10;99.90;;;;;;6223514;23;20223;-93
2022/03/09 10:19:50;;;;;;;55.63;5.17;;;3.10;99.90;;;;;;6221200;23;20184;-93
2022/03/09 10:22:41;;;;;;;198.47;9.53;;;3.20;99.90;;;;;;6220409;23;20228;-92
2022/03/09 10:25:23;;;;;;;64.73;6.97;;;3.20;99.90;;;;;;6221097;23;20164;-92
2022/03/09 10:27:55;;;;;;;109.47;7.83;;;3.30;99.90;;;;;;6220877;23;20203;-92
2022/03/09 10:30:34;;;;;;;144.90;9.30;;;3.30;99.90;;;;;;6221263;23;20196;-92
2022/03/09 10:33:07;;;;;;;186.63;11.20;;;3.30;99.90;;;;;;6223348;23;20171;-93
2022/03/09 10:35:44;;;;;;;203.10;12.93;;;3.30;99.90;;;;;;6225072;23;20207;-92
2022/03/09 10:38:30;;;;;;;256.47;12.60;;;3.30;99.90;;;;;;6210443;23;20183;-93
2022/03/09 10:41:08;;;;;;;129.33;10.60;;;3.30;99.90;;;;;;6230527;23;20165;-93
2022/03/09 10:43:40;;;;;;;96.93;7.10;;;3.30;99.90;;;;;;6197122;23;20196;-92
2022/03/09 10:46:13;;;;;;;19.37;6.87;;;3.30;99.90;;;;;;6227763;23;20169;-93
2022/03/09 10:49:06;;;;;;;23.63;5.73;;;3.30;99.90;;;;;;6232878;23;20180;-93
2022/03/09 10:51:39;;;;;;;13.57;5.30;;;3.20;99.90;;;;;;6217960;23;20189;-92
2022/03/09 10:54:16;;;;;;;12.03;5.23;;;3.20;99.90;;;;;;6219309;23;20195;-92
2022/03/09 10:56:47;;;;;;;7.20;4.93;;;3.20;99.90;;;;;;6224359;23;20513;-92
2022/03/09 10:59:21;;;;;;;13.13;5.10;;;3.10;99.90;;;;;;6234342;23;20638;-93
2022/03/09 11:02:12;;;;;;;125.93;9.43;;;3.10;99.90;;;;;;6220306;23;20208;-93
2022/03/09 11:04:43;;;;;;;135.80;9.23;;;3.20;99.90;;;;;;6221380;23;20249;-93
2022/03/09 11:07:14;;;;;;;105.10;9.27;;;3.30;99.90;;;;;;6226223;23;20234;-92
2022/03/09 11:09:49;;;;;;;211.20;10.43;;;3.30;99.90;;;;;;6204590;23;20167;-93
2022/03/09 11:12:21;;;;;;;187.70;11.70;;;3.30;99.90;;;;;;6224225;23;20192;-93
2022/03/09 11:14:53;;;;;;;113.83;8.50;;;3.30;99.90;;;;;;6220714;23;20585;-93
2022/03/09 11:17:26;;;;;;;180.93;10.67;;;3.30;99.90;;;;;;6221259;23;20180;-92
2022/03/09 11:19:57;;;;;;;259.07;11.87;;;3.30;99.90;;;;;;6231596;23;20180;-92
2022/03/09 11:22:28;;;;;;;208.87;9.40;;;3.30;99.90;;;;;;6242437;23;20184;-93
2022/03/09 11:25:00;;;;;;;101.00;7.93;;;3.30;99.90;;;;;;6216338;23;20184;-92
2022/03/09 11:27:32;;;;;;;123.13;9.00;;;3.30;99.90;;;;;;6194428;23;20208;-93
2022/03/09 11:30:28;;;;;;;61.50;7.53;;;3.30;99.90;;;;;;6192460;23;20191;-92
2022/03/09 11:33:03;;;;;;;245.20;12.37;;;3.30;99.90;;;;;;6192869;23;20173;-93
2022/03/09 11:35:36;;;;;;;235.87;16.80;;;3.40;99.90;;;;;;6191413;23;20173;-93
2022/03/09 11:38:42;;;;;;;207.07;9.77;;;3.30;99.90;;;;;;6189644;23;20188;-92
2022/03/09 11:41:24;;;;;;;133.17;8.90;;;3.30;99.90;;;;;;6190008;23;20642;-92
2022/03/09 11:44:16;;;;;;;187.10;12.27;;;3.30;99.90;;;;;;6190303;23;20498;-92
2022/03/09 11:47:02;;;;;;;149.33;9.93;;;3.20;99.90;;;;;;6190150;23;20563;-92
2022/03/09 11:49:36;;;;;;;317.17;13.47;;;3.20;99.90;;;;;;6188515;23;20184;-92
2022/03/09 11:52:08;;;;;;;238.87;12.50;;;3.20;99.90;;;;;;6191257;23;20220;-93
2022/03/09 11:54:44;;;;;;;220.13;13.73;;;3.10;99.90;;;;;;6190360;23;20168;-93
2022/03/09 11:57:16;;;;;;;275.47;13.50;;;3.10;99.90;;;;;;6189395;23;20184;-93
2022/03/09 12:00:12;;;;;;;188.60;11.97;;;3.20;99.90;;;;;;6189760;23;20176;-94
2022/03/09 12:02:47;;;;;;;349.57;15.40;;;3.20;99.90;;;;;;6190834;23;20584;-93
2022/03/09 12:05:38;;;;;;;223.40;12.43;;;3.20;99.90;;;;;;6190895;23;20239;-92
2022/03/09 12:08:12;;;;;;;97.30;7.67;;;3.10;99.90;;;;;;6189672;23;20208;-93
2022/03/09 12:10:46;;;;;;;237.17;11.73;;;3.10;99.90;;;;;;6190903;23;20201;-93
2022/03/09 12:13:35;;;;;;;259.30;12.77;;;3.20;99.90;;;;;;6190528;23;20173;-92
2022/03/09 12:16:14;;;;;;;206.17;10.90;;;3.20;99.90;;;;;;6189882;23;20280;-93
2022/03/09 12:19:03;;;;;;;389.73;17.67;;;3.20;99.90;;;;;;6190060;23;20203;-92
2022/03/09 12:22:04;;;;;;;298.07;14.80;;;3.10;99.90;;;;;;6194316;23;20192;-94
2022/03/09 12:24:39;;;;;;;284.83;12.40;;;3.00;99.90;;;;;;6196158;23;20179;-94
2022/03/09 12:27:26;;;;;;;185.83;10.33;;;3.00;99.90;;;;;;6213151;23;20281;-93
2022/03/09 12:29:57;;;;;;;146.33;8.83;;;3.10;99.90;;;;;;6223356;23;20531;-93
2022/03/09 12:32:41;;;;;;;173.40;8.43;;;3.00;99.90;;;;;;6230138;23;20671;-93
2022/03/09 12:35:12;;;;;;;329.37;13.60;;;3.00;99.90;;;;;;6241410;23;20172;-93
2022/03/09 12:37:46;;;;;;;223.20;10.60;;;3.00;99.90;;;;;;6240058;23;20169;-94
2022/03/09 12:40:17;;;;;;;239.03;11.67;;;2.90;99.90;;;;;;6236903;23;20486;-93
2022/03/09 12:43:00;;;;;;;214.90;9.63;;;2.90;99.90;;;;;;6229879;23;20195;-93
2022/03/09 12:45:51;;;;;;;205.27;11.07;;;2.90;99.90;;;;;;6228433;23;20186;-93
2022/03/09 12:48:23;;;;;;;79.60;7.07;;;2.80;99.90;;;;;;6225702;23;20187;-92
2022/03/09 12:50:55;;;;;;;50.90;6.97;;;2.80;99.90;;;;;;6221818;23;20169;-93
2022/03/09 12:53:28;;;;;;;24.93;4.90;;;2.80;99.90;;;;;;6195746;23;20242;-92
2022/03/09 12:55:59;;;;;;;56.87;6.30;;;2.90;99.90;;;;;;6199351;23;20495;-92
2022/03/09 12:58:50;;;;;;;70.87;6.23;;;2.90;99.90;;;;;;6220577;23;20219;-92
2022/03/09 13:01:21;;;;;;;78.73;6.07;;;3.00;99.90;;;;;;6224725;23;20176;-93
2022/03/09 13:04:03;;;;;;;41.57;5.03;;;3.00;99.90;;;;;;6224695;23;20184;-94
2022/03/09 13:06:36;;;;;;;118.07;7.47;;;3.00;99.90;;;;;;6225535;23;20164;-92
2022/03/09 13:09:22;;;;;;;86.07;6.93;;;3.00;99.90;;;;;;6224194;23;20177;-92
2022/03/09 13:11:53;;;;;;;90.93;5.63;;;3.00;99.90;;;;;;6228166;23;20219;-93
2022/03/09 13:14:25;;;;;;;195.40;10.47;;;2.90;99.90;;;;;;6222699;23;20169;-94
2022/03/09 13:17:03;;;;;;;15.27;3.60;;;2.90;99.90;;;;;;6223693;23;20226;-93
2022/03/09 13:19:35;;;;;;;77.57;6.13;;;2.90;99.90;;;;;;6223644;23;20180;-91
2022/03/09 13:22:07;;;;;;;46.23;5.27;;;2.90;99.90;;;;;;6201238;23;20165;-92
2022/03/09 13:24:40;;;;;;;93.27;6.80;;;2.90;99.90;;;;;;6222372;23;20215;-93
2022/03/09 13:27:18;;;;;;;42.83;4.87;;;2.90;99.90;;;;;;6225823;23;20211;-94
2022/03/09 13:29:49;;;;;;;10.70;3.83;;;2.90;99.90;;;;;;6222138;23;20204;-93
2022/03/09 13:32:34;;;;;;;6.47;4.13;;;2.90;99.90;;;;;;6236220;23;20213;-92
2022/03/09 13:35:06;;;;;;;11.73;5.00;;;2.80;99.90;;;;;;6243592;23;20156;-92
2022/03/09 13:37:40;;;;;;;5.10;4.03;;;2.90;99.90;;;;;;6242424;23;20227;-93
2022/03/09 13:40:14;;;;;;;8.60;4.27;;;2.90;99.90;;;;;;6240726;23;20177;-93
2022/03/09 13:42:46;;;;;;;13.83;4.30;;;2.90;99.90;;;;;;6222515;23;20176;-93
2022/03/09 13:45:18;;;;;;;22.83;4.17;;;3.00;99.90;;;;;;6196731;23;20571;-92
2022/03/09 13:47:55;;;;;;;5.60;3.80;;;3.00;99.90;;;;;;6196233;23;20177;-94
2022/03/09 13:50:29;;;;;;;6.27;4.03;;;3.00;99.90;;;;;;6221282;23;20176;-93
2022/03/09 13:53:11;;;;;;;5.20;3.63;;;2.90;99.90;;;;;;6221352;23;20174;-94
2022/03/09 13:55:48;;;;;;;5.93;4.13;;;2.90;99.90;;;;;;6194868;23;20564;-92
2022/03/09 13:58:23;;;;;;;3.50;3.17;;;2.90;99.90;;;;;;6193505;23;20179;-92
2022/03/09 14:01:04;;;;;;;4.57;3.23;;;2.90;99.90;;;;;;6221276;23;20661;-91
2022/03/09 14:06:15;;;;;;;5.20;2.83;;;2.80;99.90;;;;;;6221698;23;20180;-94